sensor_id;sensor_type;location;lat;lon;timestamp;P1;durP1;ratioP1;P2;durP2;ratioP2
12267;SDS011;6196;48.398;11.736;2023-02-10T00:01:20;47.17;;;28.43;;
12267;SDS011;6196;48.398;11.736;2023-02-10T00:03:50;50.20;;;30.07;;
12267;SDS011;6196;48.398;11.736;2023-02-10T00:06:18;47.77;;;29.90;;
12267;SDS011;6196;48.398;11.736;2023-02-10T00:08:48;49.97;;;31.40;;
12267;SDS011;6196;48.398;11.736;2023-02-10T00:11:18;48.73;;;29.10;;
12267;SDS011;6196;48.398;11.736;2023-02-10T00:13:45;48.33;;;28.77;;
12267;SDS011;6196;48.398;11.736;2023-02-10T00:16:13;47.50;;;28.40;;
12267;SDS011;6196;48.398;11.736;2023-02-10T00:18:41;47.47;;;28.23;;
12267;SDS011;6196;48.398;11.736;2023-02-10T00:21:10;45.37;;;28.93;;
12267;SDS011;6196;48.398;11.736;2023-02-10T00:23:42;46.53;;;29.00;;
12267;SDS011;6196;48.398;11.736;2023-02-10T00:26:10;44.03;;;28.10;;
12267;SDS011;6196;48.398;11.736;2023-02-10T00:28:39;47.63;;;27.33;;
12267;SDS011;6196;48.398;11.736;2023-02-10T00:31:06;49.50;;;28.40;;
12267;SDS011;6196;48.398;11.736;2023-02-10T00:33:35;47.87;;;27.60;;
12267;SDS011;6196;48.398;11.736;2023-02-10T00:36:06;51.33;;;30.27;;
12267;SDS011;6196;48.398;11.736;2023-02-10T00:38:36;47.13;;;28.33;;
12267;SDS011;6196;48.398;11.736;2023-02-10T00:41:04;51.90;;;30.07;;
12267;SDS011;6196;48.398;11.736;2023-02-10T00:43:32;54.13;;;31.13;;
12267;SDS011;6196;48.398;11.736;2023-02-10T00:45:59;51.57;;;30.00;;
12267;SDS011;6196;48.398;11.736;2023-02-10T00:48:26;48.43;;;30.33;;
12267;SDS011;6196;48.398;11.736;2023-02-10T00:50:53;51.80;;;30.97;;
12267;SDS011;6196;48.398;11.736;2023-02-10T00:53:20;53.60;;;30.47;;
12267;SDS011;6196;48.398;11.736;2023-02-10T00:55:47;46.33;;;28.60;;
12267;SDS011;6196;48.398;11.736;2023-02-10T00:58:14;49.30;;;29.47;;
12267;SDS011;6196;48.398;11.736;2023-02-10T01:00:41;45.93;;;27.70;;
12267;SDS011;6196;48.398;11.736;2023-02-10T01:03:08;48.00;;;27.60;;
12267;SDS011;6196;48.398;11.736;2023-02-10T01:05:35;45.40;;;28.03;;
12267;SDS011;6196;48.398;11.736;2023-02-10T01:08:02;47.00;;;27.97;;
12267;SDS011;6196;48.398;11.736;2023-02-10T01:10:31;41.57;;;26.97;;
12267;SDS011;6196;48.398;11.736;2023-02-10T01:13:01;43.80;;;27.57;;
12267;SDS011;6196;48.398;11.736;2023-02-10T01:15:30;44.20;;;25.60;;
12267;SDS011;6196;48.398;11.736;2023-02-10T01:17:57;42.73;;;27.40;;
12267;SDS011;6196;48.398;11.736;2023-02-10T01:20:25;43.67;;;26.83;;
12267;SDS011;6196;48.398;11.736;2023-02-10T01:22:52;50.10;;;28.50;;
12267;SDS011;6196;48.398;11.736;2023-02-10T01:25:19;47.07;;;29.80;;
12267;SDS011;6196;48.398;11.736;2023-02-10T01:27:46;58.50;;;33.03;;
12267;SDS011;6196;48.398;11.736;2023-02-10T01:30:13;53.17;;;31.27;;
12267;SDS011;6196;48.398;11.736;2023-02-10T01:32:41;52.43;;;30.83;;
12267;SDS011;6196;48.398;11.736;2023-02-10T01:35:08;53.50;;;30.43;;
12267;SDS011;6196;48.398;11.736;2023-02-10T01:37:34;52.53;;;30.43;;
12267;SDS011;6196;48.398;11.736;2023-02-10T01:40:04;48.73;;;29.50;;
12267;SDS011;6196;48.398;11.736;2023-02-10T01:42:31;50.50;;;28.77;;
12267;SDS011;6196;48.398;11.736;2023-02-10T01:48:00;51.00;;;27.93;;
12267;SDS011;6196;48.398;11.736;2023-02-10T01:50:29;48.00;;;27.90;;
12267;SDS011;6196;48.398;11.736;2023-02-10T01:53:10;46.73;;;27.70;;
12267;SDS011;6196;48.398;11.736;2023-02-10T01:55:38;52.73;;;29.30;;
12267;SDS011;6196;48.398;11.736;2023-02-10T01:58:09;49.70;;;28.47;;
12267;SDS011;6196;48.398;11.736;2023-02-10T02:00:39;50.47;;;29.17;;
12267;SDS011;6196;48.398;11.736;2023-02-10T02:03:06;45.73;;;29.60;;
12267;SDS011;6196;48.398;11.736;2023-02-10T02:05:37;46.87;;;27.27;;
12267;SDS011;6196;48.398;11.736;2023-02-10T02:08:08;46.07;;;28.43;;
12267;SDS011;6196;48.398;11.736;2023-02-10T02:19:50;45.43;;;27.70;;
12267;SDS011;6196;48.398;11.736;2023-02-10T02:23:14;49.10;;;27.20;;
12267;SDS011;6196;48.398;11.736;2023-02-10T02:32:35;44.60;;;26.33;;
12267;SDS011;6196;48.398;11.736;2023-02-10T02:35:15;49.37;;;28.03;;
12267;SDS011;6196;48.398;11.736;2023-02-10T02:37:50;45.97;;;26.70;;
12267;SDS011;6196;48.398;11.736;2023-02-10T02:40:19;48.90;;;27.73;;
12267;SDS011;6196;48.398;11.736;2023-02-10T02:42:46;49.83;;;28.30;;
12267;SDS011;6196;48.398;11.736;2023-02-10T02:45:16;55.60;;;30.00;;
12267;SDS011;6196;48.398;11.736;2023-02-10T02:53:42;50.70;;;27.17;;
12267;SDS011;6196;48.398;11.736;2023-02-10T02:56:39;47.03;;;26.63;;
12267;SDS011;6196;48.398;11.736;2023-02-10T02:59:39;50.63;;;27.77;;
12267;SDS011;6196;48.398;11.736;2023-02-10T03:02:29;48.53;;;27.67;;
12267;SDS011;6196;48.398;11.736;2023-02-10T03:04:59;46.40;;;26.10;;
12267;SDS011;6196;48.398;11.736;2023-02-10T03:07:26;50.10;;;29.03;;
12267;SDS011;6196;48.398;11.736;2023-02-10T03:09:53;46.73;;;28.07;;
12267;SDS011;6196;48.398;11.736;2023-02-10T03:12:19;47.10;;;28.10;;
12267;SDS011;6196;48.398;11.736;2023-02-10T03:14:46;49.13;;;28.40;;
12267;SDS011;6196;48.398;11.736;2023-02-10T03:17:13;51.37;;;29.57;;
12267;SDS011;6196;48.398;11.736;2023-02-10T03:19:40;49.77;;;28.00;;
12267;SDS011;6196;48.398;11.736;2023-02-10T03:22:07;51.37;;;29.67;;
12267;SDS011;6196;48.398;11.736;2023-02-10T03:24:34;50.43;;;27.33;;
12267;SDS011;6196;48.398;11.736;2023-02-10T03:27:01;51.70;;;29.93;;
12267;SDS011;6196;48.398;11.736;2023-02-10T03:29:31;47.37;;;28.20;;
12267;SDS011;6196;48.398;11.736;2023-02-10T03:31:58;51.13;;;26.60;;
12267;SDS011;6196;48.398;11.736;2023-02-10T03:34:27;51.10;;;30.13;;
12267;SDS011;6196;48.398;11.736;2023-02-10T03:36:54;48.67;;;28.63;;
12267;SDS011;6196;48.398;11.736;2023-02-10T03:39:21;53.53;;;30.33;;
12267;SDS011;6196;48.398;11.736;2023-02-10T03:41:48;51.33;;;28.30;;
12267;SDS011;6196;48.398;11.736;2023-02-10T03:44:15;50.10;;;27.50;;
12267;SDS011;6196;48.398;11.736;2023-02-10T03:46:42;48.93;;;28.13;;
12267;SDS011;6196;48.398;11.736;2023-02-10T03:49:09;43.40;;;27.40;;
12267;SDS011;6196;48.398;11.736;2023-02-10T03:51:36;52.03;;;28.80;;
12267;SDS011;6196;48.398;11.736;2023-02-10T03:54:03;45.13;;;27.20;;
12267;SDS011;6196;48.398;11.736;2023-02-10T03:56:29;49.27;;;27.30;;
12267;SDS011;6196;48.398;11.736;2023-02-10T03:58:59;45.97;;;26.17;;
12267;SDS011;6196;48.398;11.736;2023-02-10T04:01:27;45.47;;;26.77;;
12267;SDS011;6196;48.398;11.736;2023-02-10T04:03:54;44.23;;;26.07;;
12267;SDS011;6196;48.398;11.736;2023-02-10T04:06:21;48.80;;;28.20;;
12267;SDS011;6196;48.398;11.736;2023-02-10T04:08:48;46.60;;;25.97;;
12267;SDS011;6196;48.398;11.736;2023-02-10T04:11:15;48.77;;;27.50;;
12267;SDS011;6196;48.398;11.736;2023-02-10T04:13:41;45.83;;;26.70;;
12267;SDS011;6196;48.398;11.736;2023-02-10T04:16:10;43.43;;;25.23;;
12267;SDS011;6196;48.398;11.736;2023-02-10T04:18:40;47.20;;;26.83;;
12267;SDS011;6196;48.398;11.736;2023-02-10T04:21:11;43.83;;;25.83;;
12267;SDS011;6196;48.398;11.736;2023-02-10T04:23:39;44.30;;;25.77;;
12267;SDS011;6196;48.398;11.736;2023-02-10T04:26:06;42.47;;;24.90;;
12267;SDS011;6196;48.398;11.736;2023-02-10T04:28:33;46.77;;;25.70;;
12267;SDS011;6196;48.398;11.736;2023-02-10T04:31:00;42.00;;;25.77;;
12267;SDS011;6196;48.398;11.736;2023-02-10T04:33:27;40.53;;;24.00;;
12267;SDS011;6196;48.398;11.736;2023-02-10T04:35:55;40.77;;;24.00;;
12267;SDS011;6196;48.398;11.736;2023-02-10T04:38:22;37.53;;;23.20;;
12267;SDS011;6196;48.398;11.736;2023-02-10T04:40:50;43.70;;;25.10;;
12267;SDS011;6196;48.398;11.736;2023-02-10T04:43:17;39.57;;;23.50;;
12267;SDS011;6196;48.398;11.736;2023-02-10T04:45:44;39.73;;;24.70;;
12267;SDS011;6196;48.398;11.736;2023-02-10T04:48:11;41.40;;;25.53;;
12267;SDS011;6196;48.398;11.736;2023-02-10T04:50:40;42.23;;;25.40;;
12267;SDS011;6196;48.398;11.736;2023-02-10T04:53:07;44.37;;;26.33;;
12267;SDS011;6196;48.398;11.736;2023-02-10T04:55:35;39.43;;;23.87;;
12267;SDS011;6196;48.398;11.736;2023-02-10T04:58:02;43.80;;;24.40;;
12267;SDS011;6196;48.398;11.736;2023-02-10T05:00:29;40.57;;;23.77;;
12267;SDS011;6196;48.398;11.736;2023-02-10T05:02:56;42.77;;;24.43;;
12267;SDS011;6196;48.398;11.736;2023-02-10T05:05:23;44.13;;;24.93;;
12267;SDS011;6196;48.398;11.736;2023-02-10T05:07:51;41.20;;;23.27;;
12267;SDS011;6196;48.398;11.736;2023-02-10T05:10:18;40.83;;;23.90;;
12267;SDS011;6196;48.398;11.736;2023-02-10T05:12:46;38.17;;;24.20;;
12267;SDS011;6196;48.398;11.736;2023-02-10T05:15:13;38.47;;;22.97;;
12267;SDS011;6196;48.398;11.736;2023-02-10T05:17:40;35.30;;;22.40;;
12267;SDS011;6196;48.398;11.736;2023-02-10T05:20:07;40.97;;;24.10;;
12267;SDS011;6196;48.398;11.736;2023-02-10T05:22:36;42.17;;;24.27;;
12267;SDS011;6196;48.398;11.736;2023-02-10T05:25:04;38.57;;;23.37;;
12267;SDS011;6196;48.398;11.736;2023-02-10T05:27:32;41.53;;;22.97;;
12267;SDS011;6196;48.398;11.736;2023-02-10T05:29:59;40.23;;;23.77;;
12267;SDS011;6196;48.398;11.736;2023-02-10T05:32:26;42.03;;;25.83;;
12267;SDS011;6196;48.398;11.736;2023-02-10T05:34:53;42.57;;;24.50;;
12267;SDS011;6196;48.398;11.736;2023-02-10T05:37:19;37.40;;;23.17;;
12267;SDS011;6196;48.398;11.736;2023-02-10T05:39:46;41.33;;;23.83;;
12267;SDS011;6196;48.398;11.736;2023-02-10T05:42:13;44.67;;;25.27;;
12267;SDS011;6196;48.398;11.736;2023-02-10T05:44:40;41.20;;;23.67;;
12267;SDS011;6196;48.398;11.736;2023-02-10T05:47:07;39.63;;;22.87;;
12267;SDS011;6196;48.398;11.736;2023-02-10T05:49:34;41.07;;;23.57;;
12267;SDS011;6196;48.398;11.736;2023-02-10T05:52:01;39.77;;;23.33;;
12267;SDS011;6196;48.398;11.736;2023-02-10T05:54:27;37.30;;;22.87;;
12267;SDS011;6196;48.398;11.736;2023-02-10T05:56:55;39.00;;;24.13;;
12267;SDS011;6196;48.398;11.736;2023-02-10T05:59:22;40.47;;;22.87;;
12267;SDS011;6196;48.398;11.736;2023-02-10T06:01:49;39.33;;;22.67;;
12267;SDS011;6196;48.398;11.736;2023-02-10T06:04:15;40.40;;;23.30;;
12267;SDS011;6196;48.398;11.736;2023-02-10T06:06:42;38.77;;;22.13;;
12267;SDS011;6196;48.398;11.736;2023-02-10T06:09:09;39.03;;;23.23;;
12267;SDS011;6196;48.398;11.736;2023-02-10T06:11:36;42.90;;;24.53;;
12267;SDS011;6196;48.398;11.736;2023-02-10T06:14:03;41.17;;;24.10;;
12267;SDS011;6196;48.398;11.736;2023-02-10T06:16:30;45.93;;;24.60;;
12267;SDS011;6196;48.398;11.736;2023-02-10T06:18:57;35.93;;;22.20;;
12267;SDS011;6196;48.398;11.736;2023-02-10T06:21:24;39.43;;;22.77;;
12267;SDS011;6196;48.398;11.736;2023-02-10T06:23:52;40.83;;;23.23;;
12267;SDS011;6196;48.398;11.736;2023-02-10T06:26:18;37.70;;;22.83;;
12267;SDS011;6196;48.398;11.736;2023-02-10T06:28:45;39.97;;;22.60;;
12267;SDS011;6196;48.398;11.736;2023-02-10T06:31:12;39.83;;;23.57;;
12267;SDS011;6196;48.398;11.736;2023-02-10T06:33:39;38.07;;;21.90;;
12267;SDS011;6196;48.398;11.736;2023-02-10T06:36:06;42.43;;;23.10;;
12267;SDS011;6196;48.398;11.736;2023-02-10T06:38:35;39.13;;;23.20;;
12267;SDS011;6196;48.398;11.736;2023-02-10T06:41:03;41.03;;;23.20;;
12267;SDS011;6196;48.398;11.736;2023-02-10T06:43:31;38.17;;;23.40;;
12267;SDS011;6196;48.398;11.736;2023-02-10T06:45:58;39.37;;;22.57;;
12267;SDS011;6196;48.398;11.736;2023-02-10T06:48:25;41.50;;;23.70;;
12267;SDS011;6196;48.398;11.736;2023-02-10T06:50:52;40.93;;;23.97;;
12267;SDS011;6196;48.398;11.736;2023-02-10T06:53:19;40.97;;;23.47;;
12267;SDS011;6196;48.398;11.736;2023-02-10T06:55:47;40.33;;;23.73;;
12267;SDS011;6196;48.398;11.736;2023-02-10T06:58:15;41.83;;;24.47;;
12267;SDS011;6196;48.398;11.736;2023-02-10T07:00:43;45.10;;;24.57;;
12267;SDS011;6196;48.398;11.736;2023-02-10T07:03:10;40.63;;;23.70;;
12267;SDS011;6196;48.398;11.736;2023-02-10T07:05:40;43.93;;;25.17;;
12267;SDS011;6196;48.398;11.736;2023-02-10T07:08:07;43.27;;;25.40;;
12267;SDS011;6196;48.398;11.736;2023-02-10T07:10:34;45.37;;;24.67;;
12267;SDS011;6196;48.398;11.736;2023-02-10T07:13:01;36.37;;;24.17;;
12267;SDS011;6196;48.398;11.736;2023-02-10T07:15:28;40.97;;;24.63;;
12267;SDS011;6196;48.398;11.736;2023-02-10T07:17:55;41.47;;;25.03;;
12267;SDS011;6196;48.398;11.736;2023-02-10T07:20:22;41.77;;;24.23;;
12267;SDS011;6196;48.398;11.736;2023-02-10T07:22:49;42.53;;;25.50;;
12267;SDS011;6196;48.398;11.736;2023-02-10T07:25:17;38.97;;;23.80;;
12267;SDS011;6196;48.398;11.736;2023-02-10T07:27:45;37.73;;;23.93;;
12267;SDS011;6196;48.398;11.736;2023-02-10T07:30:12;41.53;;;24.07;;
12267;SDS011;6196;48.398;11.736;2023-02-10T07:32:39;41.83;;;27.63;;
12267;SDS011;6196;48.398;11.736;2023-02-10T07:35:08;42.00;;;26.40;;
12267;SDS011;6196;48.398;11.736;2023-02-10T07:37:35;36.20;;;24.10;;
12267;SDS011;6196;48.398;11.736;2023-02-10T07:40:04;35.53;;;22.43;;
12267;SDS011;6196;48.398;11.736;2023-02-10T07:42:31;35.70;;;22.47;;
12267;SDS011;6196;48.398;11.736;2023-02-10T07:45:00;33.27;;;22.47;;
12267;SDS011;6196;48.398;11.736;2023-02-10T07:47:28;30.83;;;21.73;;
12267;SDS011;6196;48.398;11.736;2023-02-10T07:49:54;33.97;;;21.73;;
12267;SDS011;6196;48.398;11.736;2023-02-10T07:52:21;33.67;;;21.33;;
12267;SDS011;6196;48.398;11.736;2023-02-10T07:54:49;29.77;;;20.57;;
12267;SDS011;6196;48.398;11.736;2023-02-10T07:57:16;31.03;;;21.97;;
12267;SDS011;6196;48.398;11.736;2023-02-10T07:59:43;32.50;;;22.10;;
12267;SDS011;6196;48.398;11.736;2023-02-10T08:02:10;33.97;;;22.63;;
12267;SDS011;6196;48.398;11.736;2023-02-10T08:04:38;30.80;;;21.43;;
12267;SDS011;6196;48.398;11.736;2023-02-10T08:07:05;32.57;;;21.37;;
12267;SDS011;6196;48.398;11.736;2023-02-10T08:09:32;28.27;;;21.40;;
12267;SDS011;6196;48.398;11.736;2023-02-10T08:11:59;28.20;;;21.10;;
12267;SDS011;6196;48.398;11.736;2023-02-10T08:14:25;31.80;;;21.10;;
12267;SDS011;6196;48.398;11.736;2023-02-10T08:16:52;29.70;;;22.07;;
12267;SDS011;6196;48.398;11.736;2023-02-10T08:19:19;29.63;;;20.03;;
12267;SDS011;6196;48.398;11.736;2023-02-10T08:21:46;28.73;;;21.53;;
12267;SDS011;6196;48.398;11.736;2023-02-10T08:24:14;29.87;;;20.40;;
12267;SDS011;6196;48.398;11.736;2023-02-10T08:26:41;31.17;;;21.87;;
12267;SDS011;6196;48.398;11.736;2023-02-10T08:29:08;27.00;;;19.43;;
12267;SDS011;6196;48.398;11.736;2023-02-10T08:31:35;26.67;;;19.63;;
12267;SDS011;6196;48.398;11.736;2023-02-10T08:34:02;26.50;;;20.80;;
12267;SDS011;6196;48.398;11.736;2023-02-10T08:36:29;26.43;;;19.43;;
12267;SDS011;6196;48.398;11.736;2023-02-10T08:38:57;26.23;;;18.67;;
12267;SDS011;6196;48.398;11.736;2023-02-10T08:41:24;25.43;;;18.77;;
12267;SDS011;6196;48.398;11.736;2023-02-10T08:43:51;26.57;;;19.20;;
12267;SDS011;6196;48.398;11.736;2023-02-10T08:46:18;25.10;;;18.70;;
12267;SDS011;6196;48.398;11.736;2023-02-10T08:48:45;29.23;;;19.67;;
12267;SDS011;6196;48.398;11.736;2023-02-10T08:51:12;23.80;;;18.23;;
12267;SDS011;6196;48.398;11.736;2023-02-10T08:53:41;25.37;;;17.10;;
12267;SDS011;6196;48.398;11.736;2023-02-10T08:56:09;26.03;;;18.30;;
12267;SDS011;6196;48.398;11.736;2023-02-10T08:58:41;24.37;;;17.80;;
12267;SDS011;6196;48.398;11.736;2023-02-10T09:01:08;21.33;;;17.83;;
12267;SDS011;6196;48.398;11.736;2023-02-10T09:03:45;23.07;;;18.00;;
12267;SDS011;6196;48.398;11.736;2023-02-10T09:06:13;24.43;;;18.13;;
12267;SDS011;6196;48.398;11.736;2023-02-10T09:08:41;22.90;;;18.20;;
12267;SDS011;6196;48.398;11.736;2023-02-10T09:11:09;24.00;;;18.50;;
12267;SDS011;6196;48.398;11.736;2023-02-10T09:13:36;24.23;;;18.90;;
12267;SDS011;6196;48.398;11.736;2023-02-10T09:16:03;24.57;;;18.37;;
12267;SDS011;6196;48.398;11.736;2023-02-10T09:18:31;23.03;;;17.83;;
12267;SDS011;6196;48.398;11.736;2023-02-10T09:20:58;23.83;;;18.40;;
12267;SDS011;6196;48.398;11.736;2023-02-10T09:23:26;23.80;;;18.47;;
12267;SDS011;6196;48.398;11.736;2023-02-10T09:25:54;23.43;;;17.90;;
12267;SDS011;6196;48.398;11.736;2023-02-10T09:28:24;23.80;;;17.10;;
12267;SDS011;6196;48.398;11.736;2023-02-10T09:30:52;23.33;;;18.03;;
12267;SDS011;6196;48.398;11.736;2023-02-10T09:33:19;22.77;;;18.23;;
12267;SDS011;6196;48.398;11.736;2023-02-10T09:35:46;22.77;;;17.63;;
12267;SDS011;6196;48.398;11.736;2023-02-10T09:38:13;25.27;;;18.90;;
12267;SDS011;6196;48.398;11.736;2023-02-10T09:44:13;24.63;;;18.17;;
12267;SDS011;6196;48.398;11.736;2023-02-10T09:47:12;23.43;;;17.33;;
12267;SDS011;6196;48.398;11.736;2023-02-10T09:50:37;28.40;;;17.67;;
12267;SDS011;6196;48.398;11.736;2023-02-10T09:53:19;28.17;;;20.10;;
12267;SDS011;6196;48.398;11.736;2023-02-10T09:56:00;27.27;;;19.70;;
12267;SDS011;6196;48.398;11.736;2023-02-10T09:58:35;26.13;;;18.83;;
12267;SDS011;6196;48.398;11.736;2023-02-10T10:03:49;31.87;;;22.80;;
12267;SDS011;6196;48.398;11.736;2023-02-10T10:06:37;32.30;;;22.87;;
12267;SDS011;6196;48.398;11.736;2023-02-10T10:11:43;58.53;;;51.60;;
12267;SDS011;6196;48.398;11.736;2023-02-10T10:14:25;34.07;;;27.63;;
12267;SDS011;6196;48.398;11.736;2023-02-10T10:32:17;30.87;;;19.80;;
12267;SDS011;6196;48.398;11.736;2023-02-10T10:35:17;28.20;;;18.73;;
12267;SDS011;6196;48.398;11.736;2023-02-10T10:37:50;26.57;;;19.27;;
12267;SDS011;6196;48.398;11.736;2023-02-10T10:40:19;27.00;;;19.33;;
12267;SDS011;6196;48.398;11.736;2023-02-10T10:42:58;24.47;;;18.27;;
12267;SDS011;6196;48.398;11.736;2023-02-10T10:47:58;24.07;;;19.57;;
12267;SDS011;6196;48.398;11.736;2023-02-10T10:50:51;28.40;;;19.37;;
12267;SDS011;6196;48.398;11.736;2023-02-10T10:59:47;28.60;;;19.93;;
12267;SDS011;6196;48.398;11.736;2023-02-10T11:01:58;26.70;;;19.53;;
12267;SDS011;6196;48.398;11.736;2023-02-10T11:04:26;26.07;;;19.73;;
12267;SDS011;6196;48.398;11.736;2023-02-10T11:06:56;25.63;;;19.80;;
12267;SDS011;6196;48.398;11.736;2023-02-10T11:12:05;25.87;;;18.90;;
12267;SDS011;6196;48.398;11.736;2023-02-10T11:14:47;27.33;;;19.73;;
12267;SDS011;6196;48.398;11.736;2023-02-10T11:20:38;27.03;;;19.77;;
12267;SDS011;6196;48.398;11.736;2023-02-10T11:23:04;25.00;;;19.33;;
12267;SDS011;6196;48.398;11.736;2023-02-10T11:25:41;26.07;;;18.70;;
12267;SDS011;6196;48.398;11.736;2023-02-10T11:28:16;26.87;;;19.47;;
12267;SDS011;6196;48.398;11.736;2023-02-10T11:30:46;25.97;;;20.20;;
12267;SDS011;6196;48.398;11.736;2023-02-10T11:33:22;26.70;;;20.20;;
12267;SDS011;6196;48.398;11.736;2023-02-10T11:36:04;23.13;;;19.43;;
12267;SDS011;6196;48.398;11.736;2023-02-10T11:38:34;25.23;;;20.20;;
12267;SDS011;6196;48.398;11.736;2023-02-10T11:41:03;25.37;;;20.67;;
12267;SDS011;6196;48.398;11.736;2023-02-10T11:43:37;25.67;;;20.23;;
12267;SDS011;6196;48.398;11.736;2023-02-10T11:48:59;24.30;;;20.03;;
12267;SDS011;6196;48.398;11.736;2023-02-10T11:51:29;28.33;;;21.50;;
12267;SDS011;6196;48.398;11.736;2023-02-10T11:53:57;27.10;;;21.57;;
12267;SDS011;6196;48.398;11.736;2023-02-10T11:56:40;25.87;;;21.37;;
12267;SDS011;6196;48.398;11.736;2023-02-10T12:05:07;23.90;;;19.43;;
12267;SDS011;6196;48.398;11.736;2023-02-10T12:08:09;23.60;;;19.40;;
12267;SDS011;6196;48.398;11.736;2023-02-10T12:10:55;25.50;;;20.83;;
12267;SDS011;6196;48.398;11.736;2023-02-10T12:17:05;26.30;;;20.43;;
12267;SDS011;6196;48.398;11.736;2023-02-10T12:29:19;26.77;;;20.60;;
12267;SDS011;6196;48.398;11.736;2023-02-10T12:35:31;27.23;;;20.90;;
12267;SDS011;6196;48.398;11.736;2023-02-10T12:41:21;25.77;;;21.07;;
12267;SDS011;6196;48.398;11.736;2023-02-10T12:52:50;23.37;;;20.27;;
12267;SDS011;6196;48.398;11.736;2023-02-10T12:58:17;24.60;;;20.30;;
12267;SDS011;6196;48.398;11.736;2023-02-10T13:04:04;23.97;;;20.83;;
12267;SDS011;6196;48.398;11.736;2023-02-10T13:06:42;23.67;;;21.07;;
12267;SDS011;6196;48.398;11.736;2023-02-10T13:09:25;23.30;;;20.67;;
12267;SDS011;6196;48.398;11.736;2023-02-10T13:14:59;28.93;;;22.93;;
12267;SDS011;6196;48.398;11.736;2023-02-10T13:17:40;24.03;;;20.57;;
12267;SDS011;6196;48.398;11.736;2023-02-10T13:20:24;24.80;;;20.23;;
12267;SDS011;6196;48.398;11.736;2023-02-10T13:34:33;26.97;;;22.07;;
12267;SDS011;6196;48.398;11.736;2023-02-10T13:37:08;23.13;;;20.60;;
12267;SDS011;6196;48.398;11.736;2023-02-10T13:39:49;24.60;;;20.47;;
12267;SDS011;6196;48.398;11.736;2023-02-10T13:42:29;25.03;;;20.33;;
12267;SDS011;6196;48.398;11.736;2023-02-10T13:45:15;23.43;;;19.93;;
12267;SDS011;6196;48.398;11.736;2023-02-10T13:47:54;26.80;;;23.00;;
12267;SDS011;6196;48.398;11.736;2023-02-10T14:00:29;21.37;;;19.07;;
12267;SDS011;6196;48.398;11.736;2023-02-10T14:05:49;22.83;;;20.30;;
12267;SDS011;6196;48.398;11.736;2023-02-10T14:08:32;24.33;;;19.43;;
12267;SDS011;6196;48.398;11.736;2023-02-10T14:14:21;22.87;;;19.87;;
12267;SDS011;6196;48.398;11.736;2023-02-10T14:17:02;23.63;;;20.57;;
12267;SDS011;6196;48.398;11.736;2023-02-10T14:19:50;22.33;;;19.47;;
12267;SDS011;6196;48.398;11.736;2023-02-10T14:24:52;20.83;;;18.63;;
12267;SDS011;6196;48.398;11.736;2023-02-10T14:27:21;22.53;;;19.57;;
12267;SDS011;6196;48.398;11.736;2023-02-10T14:29:52;21.50;;;19.17;;
12267;SDS011;6196;48.398;11.736;2023-02-10T14:32:24;21.63;;;19.07;;
12267;SDS011;6196;48.398;11.736;2023-02-10T14:34:56;25.37;;;19.93;;
12267;SDS011;6196;48.398;11.736;2023-02-10T14:37:50;21.57;;;19.27;;
12267;SDS011;6196;48.398;11.736;2023-02-10T14:40:20;21.63;;;18.77;;
12267;SDS011;6196;48.398;11.736;2023-02-10T14:42:49;22.80;;;20.50;;
12267;SDS011;6196;48.398;11.736;2023-02-10T14:45:24;22.67;;;20.23;;
12267;SDS011;6196;48.398;11.736;2023-02-10T14:47:53;21.60;;;19.03;;
12267;SDS011;6196;48.398;11.736;2023-02-10T14:50:24;24.00;;;19.30;;
12267;SDS011;6196;48.398;11.736;2023-02-10T14:53:00;22.40;;;19.53;;
12267;SDS011;6196;48.398;11.736;2023-02-10T14:55:34;20.87;;;18.60;;
12267;SDS011;6196;48.398;11.736;2023-02-10T15:03:53;22.97;;;20.30;;
12267;SDS011;6196;48.398;11.736;2023-02-10T15:06:24;23.57;;;20.40;;
12267;SDS011;6196;48.398;11.736;2023-02-10T15:09:12;23.23;;;20.00;;
12267;SDS011;6196;48.398;11.736;2023-02-10T15:11:48;21.67;;;19.37;;
12267;SDS011;6196;48.398;11.736;2023-02-10T15:15:25;23.13;;;19.97;;
12267;SDS011;6196;48.398;11.736;2023-02-10T15:18:02;22.40;;;19.47;;
12267;SDS011;6196;48.398;11.736;2023-02-10T15:20:34;24.90;;;19.57;;
12267;SDS011;6196;48.398;11.736;2023-02-10T15:33:49;33.03;;;26.93;;
12267;SDS011;6196;48.398;11.736;2023-02-10T15:41:27;26.17;;;19.70;;
12267;SDS011;6196;48.398;11.736;2023-02-10T15:49:45;34.63;;;27.97;;
12267;SDS011;6196;48.398;11.736;2023-02-10T15:52:28;26.83;;;22.67;;
12267;SDS011;6196;48.398;11.736;2023-02-10T15:55:00;26.03;;;21.00;;
12267;SDS011;6196;48.398;11.736;2023-02-10T15:57:30;26.50;;;21.23;;
12267;SDS011;6196;48.398;11.736;2023-02-10T15:59:57;26.10;;;20.83;;
12267;SDS011;6196;48.398;11.736;2023-02-10T16:02:24;29.37;;;22.30;;
12267;SDS011;6196;48.398;11.736;2023-02-10T16:04:52;27.10;;;21.20;;
12267;SDS011;6196;48.398;11.736;2023-02-10T16:07:23;25.93;;;19.53;;
12267;SDS011;6196;48.398;11.736;2023-02-10T16:09:53;32.70;;;23.70;;
12267;SDS011;6196;48.398;11.736;2023-02-10T16:12:21;29.47;;;20.90;;
12267;SDS011;6196;48.398;11.736;2023-02-10T16:14:49;27.20;;;20.00;;
12267;SDS011;6196;48.398;11.736;2023-02-10T16:17:18;28.93;;;21.13;;
12267;SDS011;6196;48.398;11.736;2023-02-10T16:19:54;27.37;;;20.23;;
12267;SDS011;6196;48.398;11.736;2023-02-10T16:22:21;27.90;;;20.87;;
12267;SDS011;6196;48.398;11.736;2023-02-10T16:24:48;29.40;;;20.80;;
12267;SDS011;6196;48.398;11.736;2023-02-10T16:27:15;28.10;;;20.80;;
12267;SDS011;6196;48.398;11.736;2023-02-10T16:29:42;29.30;;;20.97;;
12267;SDS011;6196;48.398;11.736;2023-02-10T16:32:09;29.07;;;19.87;;
12267;SDS011;6196;48.398;11.736;2023-02-10T16:34:37;27.53;;;19.67;;
12267;SDS011;6196;48.398;11.736;2023-02-10T16:37:04;29.47;;;21.20;;
12267;SDS011;6196;48.398;11.736;2023-02-10T16:39:31;28.37;;;20.13;;
12267;SDS011;6196;48.398;11.736;2023-02-10T16:41:58;27.93;;;20.07;;
12267;SDS011;6196;48.398;11.736;2023-02-10T16:44:25;33.23;;;21.30;;
12267;SDS011;6196;48.398;11.736;2023-02-10T16:46:52;26.03;;;20.20;;
12267;SDS011;6196;48.398;11.736;2023-02-10T16:49:19;30.37;;;20.77;;
12267;SDS011;6196;48.398;11.736;2023-02-10T16:51:46;26.40;;;20.07;;
12267;SDS011;6196;48.398;11.736;2023-02-10T16:54:13;30.60;;;20.50;;
12267;SDS011;6196;48.398;11.736;2023-02-10T16:56:40;31.63;;;21.27;;
12267;SDS011;6196;48.398;11.736;2023-02-10T16:59:11;28.53;;;21.27;;
12267;SDS011;6196;48.398;11.736;2023-02-10T17:01:42;30.00;;;20.90;;
12267;SDS011;6196;48.398;11.736;2023-02-10T17:04:10;30.13;;;21.43;;
12267;SDS011;6196;48.398;11.736;2023-02-10T17:06:42;29.27;;;20.23;;
12267;SDS011;6196;48.398;11.736;2023-02-10T17:09:14;30.07;;;20.97;;
12267;SDS011;6196;48.398;11.736;2023-02-10T17:11:43;31.93;;;21.07;;
12267;SDS011;6196;48.398;11.736;2023-02-10T17:14:10;29.90;;;20.60;;
12267;SDS011;6196;48.398;11.736;2023-02-10T17:16:38;30.73;;;20.67;;
12267;SDS011;6196;48.398;11.736;2023-02-10T17:19:09;28.60;;;20.03;;
12267;SDS011;6196;48.398;11.736;2023-02-10T17:21:39;31.47;;;21.30;;
12267;SDS011;6196;48.398;11.736;2023-02-10T17:24:07;29.93;;;20.83;;
12267;SDS011;6196;48.398;11.736;2023-02-10T17:26:33;30.03;;;20.43;;
12267;SDS011;6196;48.398;11.736;2023-02-10T17:29:00;31.33;;;20.83;;